QFA63 YSSY-FAOR
Flight info
| Callsign | QFA63 |
|---|---|
| Flight time | N/A |
| Altitude | 34000 |
| Route | WOL J42 AY T8 TEKUP DCT 39S127E 41S123E/N0503F360 43S119E 43S115E 43S111E 43S107E 43S103E 43S099E 43S095E 43S091E/N0484F380 43S087E 43S083E 43S079E DCT RERAB UT585 BIGSA DCT 39S053E/N0490F400 37S047E 35S041E DCT ANVED Q17 EPRIB UQ17 GEPOM UZ29 UNPOM UNPOM1A |
| Aircraft | A388/J-SADE2E3FGHIJ3J4J5M1RWXY/LB1D1 |
Departure
| Time | N/A |
|---|---|
| Airport | Sydney Kingsford Smith International Airport (YSSY) |
Arrival
| Time | 2026-04-30 20:31 |
|---|---|
| Airport | O.R. Tambo International Airport (FAOR) |
| Time | Latitude | Longitude | Altitude | Speed | Heading |
|---|---|---|---|---|---|
| 2026-04-30 17:39 | -36.17158 | 44.36710 | 40097 ft | 392 kts | 284° |
| 2026-04-30 17:42 | -36.06888 | 44.05662 | 40091 ft | 389 kts | 284° |
| 2026-04-30 17:43 | -36.01732 | 43.90193 | 40092 ft | 390 kts | 284° |
| 2026-04-30 17:44 | -35.95515 | 43.71649 | 40100 ft | 391 kts | 284° |
| 2026-04-30 17:47 | -35.86096 | 43.43688 | 40099 ft | 398 kts | 284° |
| 2026-04-30 17:48 | -35.81828 | 43.31283 | 40082 ft | 383 kts | 284° |
| 2026-04-30 17:48 | -35.78719 | 43.22130 | 40104 ft | 389 kts | 284° |
| 2026-04-30 17:50 | -35.70347 | 42.97737 | 40078 ft | 395 kts | 284° |
| 2026-04-30 17:51 | -35.67187 | 42.88590 | 40082 ft | 382 kts | 284° |
| 2026-04-30 17:52 | -35.64056 | 42.79454 | 40081 ft | 392 kts | 284° |
| 2026-04-30 17:54 | -35.54564 | 42.52262 | 40080 ft | 383 kts | 284° |
| 2026-04-30 17:56 | -35.46043 | 42.27965 | 40075 ft | 390 kts | 284° |
| 2026-04-30 17:58 | -35.39677 | 42.09967 | 40070 ft | 385 kts | 284° |
| 2026-04-30 18:00 | -35.31127 | 41.85951 | 40095 ft | 381 kts | 285° |
| 2026-04-30 18:01 | -35.25783 | 41.70991 | 40066 ft | 387 kts | 285° |
| 2026-04-30 18:02 | -35.19345 | 41.53148 | 40079 ft | 382 kts | 285° |
| 2026-04-30 18:04 | -35.12920 | 41.35399 | 40063 ft | 381 kts | 285° |
| 2026-04-30 18:06 | -35.04665 | 41.12723 | 40057 ft | 381 kts | 285° |
| 2026-04-30 18:08 | -34.96585 | 40.92204 | 40059 ft | 388 kts | 289° |
| 2026-04-30 18:10 | -34.86432 | 40.68943 | 40044 ft | 389 kts | 289° |
| 2026-04-30 18:11 | -34.77498 | 40.48608 | 40033 ft | 389 kts | 289° |
| 2026-04-30 18:13 | -34.71115 | 40.34167 | 40031 ft | 388 kts | 289° |
| 2026-04-30 18:14 | -34.64681 | 40.19673 | 40042 ft | 392 kts | 289° |
| 2026-04-30 18:15 | -34.56901 | 40.02213 | 40055 ft | 394 kts | 289° |
| 2026-04-30 18:16 | -34.51684 | 39.90585 | 39979 ft | 389 kts | 289° |
| 2026-04-30 18:17 | -34.49100 | 39.84825 | 39987 ft | 389 kts | 289° |
| 2026-04-30 18:18 | -34.45205 | 39.76164 | 39985 ft | 390 kts | 289° |
| 2026-04-30 18:18 | -34.42633 | 39.70470 | 39969 ft | 387 kts | 289° |
| 2026-04-30 18:19 | -34.40049 | 39.64749 | 39977 ft | 387 kts | 290° |
| 2026-04-30 18:19 | -34.37469 | 39.59039 | 39985 ft | 387 kts | 290° |
| 2026-04-30 18:20 | -34.34865 | 39.53284 | 39999 ft | 390 kts | 290° |
| 2026-04-30 18:20 | -34.32243 | 39.47514 | 40010 ft | 392 kts | 290° |
| 2026-04-30 18:21 | -34.29615 | 39.41728 | 40015 ft | 392 kts | 290° |
| 2026-04-30 18:21 | -34.26981 | 39.35935 | 40016 ft | 395 kts | 290° |
| 2026-04-30 18:22 | -34.24339 | 39.30140 | 40015 ft | 391 kts | 290° |
| 2026-04-30 18:22 | -34.20391 | 39.21513 | 40004 ft | 390 kts | 290° |
| 2026-04-30 18:23 | -34.17765 | 39.15765 | 40004 ft | 390 kts | 290° |
| 2026-04-30 18:23 | -34.15154 | 39.10085 | 39995 ft | 388 kts | 290° |
| 2026-04-30 18:24 | -34.11230 | 39.01554 | 39985 ft | 387 kts | 290° |
| 2026-04-30 18:25 | -34.08614 | 38.95870 | 39993 ft | 388 kts | 291° |
| 2026-04-30 18:25 | -34.04689 | 38.87355 | 39996 ft | 388 kts | 291° |
| 2026-04-30 18:26 | -34.00748 | 38.78840 | 39992 ft | 387 kts | 291° |
| 2026-04-30 18:27 | -33.96807 | 38.70345 | 39973 ft | 386 kts | 291° |
| 2026-04-30 18:28 | -33.92871 | 38.61877 | 39964 ft | 386 kts | 291° |
| 2026-04-30 18:28 | -33.88943 | 38.53447 | 39981 ft | 387 kts | 291° |
| 2026-04-30 18:29 | -33.83675 | 38.42166 | 39978 ft | 385 kts | 291° |
| 2026-04-30 18:30 | -33.78392 | 38.30903 | 39990 ft | 387 kts | 291° |
| 2026-04-30 18:31 | -33.74436 | 38.22484 | 39994 ft | 387 kts | 291° |
| 2026-04-30 18:32 | -33.70461 | 38.14050 | 39995 ft | 388 kts | 291° |
| 2026-04-30 18:33 | -33.66466 | 38.05599 | 39999 ft | 387 kts | 291° |
| 2026-04-30 18:33 | -33.62477 | 37.97168 | 39992 ft | 387 kts | 291° |
| 2026-04-30 18:34 | -33.58491 | 37.88762 | 39983 ft | 386 kts | 291° |
| 2026-04-30 18:35 | -33.55826 | 37.83160 | 39982 ft | 386 kts | 291° |
| 2026-04-30 18:35 | -33.53161 | 37.77573 | 39992 ft | 386 kts | 292° |
| 2026-04-30 18:36 | -33.49162 | 37.69189 | 39988 ft | 387 kts | 292° |
| 2026-04-30 18:37 | -33.45158 | 37.60815 | 39997 ft | 386 kts | 292° |
| 2026-04-30 18:37 | -33.42488 | 37.55238 | 39986 ft | 387 kts | 292° |
| 2026-04-30 18:38 | -33.39828 | 37.49699 | 39984 ft | 386 kts | 292° |
| 2026-04-30 18:38 | -33.37151 | 37.44127 | 39990 ft | 386 kts | 292° |
| 2026-04-30 18:39 | -33.34472 | 37.38561 | 39983 ft | 386 kts | 292° |
| 2026-04-30 18:39 | -33.31790 | 37.32999 | 39987 ft | 385 kts | 292° |
| 2026-04-30 18:40 | -33.29107 | 37.27439 | 39993 ft | 386 kts | 292° |
| 2026-04-30 18:40 | -33.26426 | 37.21895 | 39987 ft | 385 kts | 292° |
| 2026-04-30 18:41 | -33.23745 | 37.16364 | 39985 ft | 384 kts | 293° |
| 2026-04-30 18:41 | -33.21086 | 37.10886 | 39984 ft | 383 kts | 293° |
| 2026-04-30 18:42 | -33.18418 | 37.05396 | 39963 ft | 381 kts | 293° |
| 2026-04-30 18:42 | -33.14410 | 36.97158 | 39971 ft | 383 kts | 293° |
| 2026-04-30 18:45 | -32.99634 | 36.66960 | 39979 ft | 384 kts | 293° |
| 2026-04-30 18:46 | -32.96935 | 36.61470 | 39981 ft | 384 kts | 293° |
| 2026-04-30 18:46 | -32.94222 | 36.55963 | 39987 ft | 384 kts | 294° |
| 2026-04-30 18:47 | -32.91513 | 36.50469 | 39991 ft | 384 kts | 294° |
| 2026-04-30 18:47 | -32.88799 | 36.44977 | 39983 ft | 384 kts | 294° |
| 2026-04-30 18:48 | -32.86110 | 36.39542 | 39983 ft | 384 kts | 294° |
| 2026-04-30 18:48 | -32.83407 | 36.34087 | 39980 ft | 383 kts | 294° |
| 2026-04-30 18:49 | -32.80697 | 36.28625 | 39978 ft | 383 kts | 294° |
| 2026-04-30 18:49 | -32.78437 | 36.24077 | 39984 ft | 384 kts | 294° |
| 2026-04-30 18:50 | -32.75722 | 36.18618 | 39982 ft | 384 kts | 294° |
| 2026-04-30 18:50 | -32.72999 | 36.13154 | 39984 ft | 383 kts | 294° |
| 2026-04-30 18:51 | -32.70284 | 36.07718 | 39980 ft | 383 kts | 294° |
| 2026-04-30 18:51 | -32.67570 | 36.02282 | 39985 ft | 383 kts | 294° |
| 2026-04-30 18:52 | -32.64855 | 35.96848 | 39963 ft | 383 kts | 295° |
| 2026-04-30 18:52 | -32.62134 | 35.91424 | 39986 ft | 383 kts | 295° |
| 2026-04-30 18:53 | -32.59409 | 35.85994 | 39984 ft | 383 kts | 295° |
| 2026-04-30 18:53 | -32.56700 | 35.80606 | 39988 ft | 382 kts | 295° |
| 2026-04-30 18:54 | -32.53970 | 35.75186 | 39987 ft | 383 kts | 295° |
| 2026-04-30 18:54 | -32.51236 | 35.69763 | 39981 ft | 383 kts | 295° |
| 2026-04-30 18:55 | -32.48498 | 35.64336 | 39984 ft | 384 kts | 295° |
| 2026-04-30 18:55 | -32.44387 | 35.56210 | 39986 ft | 383 kts | 295° |
| 2026-04-30 18:56 | -32.40271 | 35.48083 | 39994 ft | 383 kts | 295° |
| 2026-04-30 18:57 | -32.36173 | 35.40024 | 39984 ft | 382 kts | 295° |
| 2026-04-30 18:57 | -32.33427 | 35.34626 | 39975 ft | 382 kts | 295° |
| 2026-04-30 18:58 | -32.29318 | 35.26564 | 40002 ft | 381 kts | 295° |
| 2026-04-30 18:59 | -32.25209 | 35.18524 | 40000 ft | 381 kts | 295° |
| 2026-04-30 19:00 | -32.19735 | 35.07835 | 39993 ft | 381 kts | 295° |
| 2026-04-30 19:01 | -32.14224 | 34.97103 | 40004 ft | 382 kts | 295° |
| 2026-04-30 19:02 | -32.10093 | 34.89085 | 40002 ft | 381 kts | 295° |
| 2026-04-30 19:03 | -32.04582 | 34.78409 | 40001 ft | 380 kts | 295° |
| 2026-04-30 19:04 | -31.99063 | 34.67747 | 40002 ft | 381 kts | 296° |
| 2026-04-30 19:05 | -31.93539 | 34.57108 | 39991 ft | 382 kts | 296° |
| 2026-04-30 19:06 | -31.87988 | 34.46443 | 39997 ft | 382 kts | 296° |
| 2026-04-30 19:06 | -31.83820 | 34.38461 | 39998 ft | 381 kts | 296° |
| 2026-04-30 19:07 | -31.79655 | 34.30493 | 39996 ft | 381 kts | 296° |
| 2026-04-30 19:08 | -31.74094 | 34.19887 | 39990 ft | 380 kts | 296° |
| 2026-04-30 19:09 | -31.69918 | 34.11941 | 39998 ft | 381 kts | 296° |
| 2026-04-30 19:09 | -31.67148 | 34.06678 | 40000 ft | 381 kts | 296° |
| 2026-04-30 19:10 | -31.61560 | 33.96084 | 40003 ft | 381 kts | 296° |
| 2026-04-30 19:11 | -31.57369 | 33.88160 | 40004 ft | 381 kts | 296° |
| 2026-04-30 19:12 | -31.54572 | 33.82879 | 40004 ft | 381 kts | 296° |
| 2026-04-30 19:12 | -31.51771 | 33.77598 | 40007 ft | 381 kts | 296° |
| 2026-04-30 19:13 | -31.46155 | 33.67033 | 40009 ft | 382 kts | 297° |
| 2026-04-30 19:14 | -31.43357 | 33.61779 | 40007 ft | 383 kts | 297° |
| 2026-04-30 19:14 | -31.40538 | 33.56495 | 40009 ft | 383 kts | 297° |
| 2026-04-30 19:15 | -31.37713 | 33.51205 | 40006 ft | 384 kts | 297° |
| 2026-04-30 19:15 | -31.33458 | 33.43251 | 40013 ft | 384 kts | 297° |
| 2026-04-30 19:16 | -31.30622 | 33.37954 | 40007 ft | 384 kts | 297° |
| 2026-04-30 19:17 | -31.26358 | 33.30002 | 39996 ft | 385 kts | 297° |
| 2026-04-30 19:17 | -31.22084 | 33.22055 | 39991 ft | 385 kts | 297° |
| 2026-04-30 19:18 | -31.17792 | 33.14172 | 39996 ft | 387 kts | 300° |
| 2026-04-30 19:19 | -31.14587 | 33.09113 | 39984 ft | 388 kts | 303° |
| 2026-04-30 19:19 | -31.09213 | 33.01954 | 39974 ft | 392 kts | 305° |
| 2026-04-30 19:20 | -31.05599 | 32.97205 | 39978 ft | 392 kts | 305° |
| 2026-04-30 19:21 | -31.00164 | 32.90085 | 39985 ft | 392 kts | 306° |
| 2026-04-30 19:22 | -30.92927 | 32.80639 | 39987 ft | 392 kts | 306° |
| 2026-04-30 19:23 | -30.81997 | 32.66416 | 39985 ft | 392 kts | 306° |
| 2026-04-30 19:24 | -30.76535 | 32.59326 | 39973 ft | 392 kts | 306° |
| 2026-04-30 19:25 | -30.67415 | 32.47514 | 39979 ft | 392 kts | 306° |
| 2026-04-30 19:26 | -30.60138 | 32.38124 | 39980 ft | 392 kts | 306° |
| 2026-04-30 19:27 | -30.54658 | 32.31063 | 39962 ft | 392 kts | 306° |
| 2026-04-30 19:28 | -30.49163 | 32.23993 | 39955 ft | 394 kts | 306° |
| 2026-04-30 19:29 | -30.41788 | 32.14532 | 39979 ft | 396 kts | 306° |
| 2026-04-30 19:30 | -30.34406 | 32.05081 | 39961 ft | 396 kts | 307° |
| 2026-04-30 19:31 | -30.26987 | 31.95607 | 39986 ft | 397 kts | 307° |
| 2026-04-30 19:31 | -30.21450 | 31.88554 | 39974 ft | 396 kts | 307° |
| 2026-04-30 19:32 | -30.17737 | 31.83827 | 39963 ft | 396 kts | 307° |
| 2026-04-30 19:32 | -30.14028 | 31.79114 | 39963 ft | 397 kts | 307° |
| 2026-04-30 19:33 | -30.10304 | 31.74385 | 39975 ft | 397 kts | 307° |
| 2026-04-30 19:33 | -30.06588 | 31.69673 | 39982 ft | 397 kts | 307° |
| 2026-04-30 19:34 | -30.02874 | 31.64970 | 39960 ft | 396 kts | 307° |
| 2026-04-30 19:35 | -29.97326 | 31.57956 | 39970 ft | 397 kts | 307° |
| 2026-04-30 19:35 | -29.93602 | 31.53253 | 39963 ft | 397 kts | 307° |
| 2026-04-30 19:36 | -29.89867 | 31.48546 | 39980 ft | 397 kts | 307° |
| 2026-04-30 19:36 | -29.84908 | 31.42297 | 39957 ft | 397 kts | 307° |
| 2026-04-30 19:37 | -29.81167 | 31.37597 | 39962 ft | 398 kts | 307° |
| 2026-04-30 19:37 | -29.76817 | 31.32134 | 39981 ft | 399 kts | 307° |
| 2026-04-30 19:38 | -29.73670 | 31.28188 | 39970 ft | 399 kts | 307° |
| 2026-04-30 19:38 | -29.69939 | 31.23518 | 39984 ft | 400 kts | 307° |
| 2026-04-30 19:39 | -29.66172 | 31.18800 | 39986 ft | 400 kts | 308° |
| 2026-04-30 19:39 | -29.62409 | 31.14090 | 39974 ft | 399 kts | 307° |
| 2026-04-30 19:40 | -29.58484 | 31.09537 | 39960 ft | 401 kts | 310° |
| 2026-04-30 19:40 | -29.54472 | 31.05076 | 39965 ft | 401 kts | 310° |
| 2026-04-30 19:41 | -29.50464 | 31.00609 | 39961 ft | 401 kts | 310° |
| 2026-04-30 19:41 | -29.46482 | 30.96178 | 39976 ft | 401 kts | 310° |
| 2026-04-30 19:42 | -29.42467 | 30.91719 | 39985 ft | 402 kts | 310° |
| 2026-04-30 19:42 | -29.38448 | 30.87258 | 39979 ft | 402 kts | 310° |
| 2026-04-30 19:43 | -29.34426 | 30.82803 | 39979 ft | 402 kts | 310° |
| 2026-04-30 19:44 | -29.28386 | 30.76118 | 39981 ft | 403 kts | 310° |
| 2026-04-30 19:44 | -29.24379 | 30.71690 | 39982 ft | 403 kts | 311° |
| 2026-04-30 19:45 | -29.20345 | 30.67239 | 39991 ft | 403 kts | 311° |
| 2026-04-30 19:45 | -29.16314 | 30.62796 | 39974 ft | 402 kts | 311° |
| 2026-04-30 19:46 | -29.12126 | 30.58505 | 39989 ft | 407 kts | 315° |
| 2026-04-30 19:46 | -29.07462 | 30.54761 | 39983 ft | 411 kts | 320° |
| 2026-04-30 19:47 | -29.02678 | 30.51169 | 39986 ft | 411 kts | 320° |
| 2026-04-30 19:47 | -28.97902 | 30.47566 | 39988 ft | 412 kts | 320° |
| 2026-04-30 19:48 | -28.93120 | 30.43961 | 39996 ft | 413 kts | 320° |
| 2026-04-30 19:48 | -28.88349 | 30.40371 | 40003 ft | 413 kts | 320° |
| 2026-04-30 19:49 | -28.83537 | 30.36758 | 40000 ft | 414 kts | 320° |
| 2026-04-30 19:49 | -28.76330 | 30.31351 | 39996 ft | 413 kts | 320° |
| 2026-04-30 19:50 | -28.71521 | 30.27751 | 39998 ft | 415 kts | 320° |
| 2026-04-30 19:50 | -28.66696 | 30.24137 | 40012 ft | 414 kts | 320° |
| 2026-04-30 19:51 | -28.61877 | 30.20532 | 40002 ft | 415 kts | 320° |
| 2026-04-30 19:51 | -28.57069 | 30.16944 | 40010 ft | 416 kts | 320° |
| 2026-04-30 19:52 | -28.52225 | 30.13331 | 40020 ft | 417 kts | 320° |
| 2026-04-30 19:52 | -28.47368 | 30.09711 | 40029 ft | 418 kts | 320° |
| 2026-04-30 19:53 | -28.42491 | 30.06081 | 40039 ft | 419 kts | 321° |
| 2026-04-30 19:53 | -28.37603 | 30.02447 | 40049 ft | 420 kts | 321° |
| 2026-04-30 19:54 | -28.32735 | 29.98832 | 40066 ft | 421 kts | 321° |
| 2026-04-30 19:54 | -28.27829 | 29.95193 | 40078 ft | 421 kts | 321° |
| 2026-04-30 19:55 | -28.22923 | 29.91558 | 40082 ft | 421 kts | 321° |
| 2026-04-30 19:55 | -28.18015 | 29.87925 | 40084 ft | 421 kts | 321° |
| 2026-04-30 19:56 | -28.13102 | 29.84293 | 40080 ft | 421 kts | 321° |
| 2026-04-30 19:56 | -28.08217 | 29.80685 | 40095 ft | 421 kts | 321° |
| 2026-04-30 19:57 | -28.03300 | 29.77058 | 40092 ft | 421 kts | 321° |
| 2026-04-30 19:57 | -27.98387 | 29.73439 | 40118 ft | 421 kts | 321° |
| 2026-04-30 19:58 | -27.93479 | 29.69825 | 40109 ft | 421 kts | 321° |
| 2026-04-30 19:58 | -27.88592 | 29.66232 | 40111 ft | 421 kts | 321° |
| 2026-04-30 19:59 | -27.83663 | 29.62612 | 40118 ft | 421 kts | 321° |
| 2026-04-30 20:00 | -27.76280 | 29.57202 | 40133 ft | 421 kts | 321° |
| 2026-04-30 20:00 | -27.71380 | 29.53618 | 40139 ft | 422 kts | 321° |
| 2026-04-30 20:01 | -27.63996 | 29.48222 | 40149 ft | 422 kts | 321° |
| 2026-04-30 20:01 | -27.59069 | 29.44629 | 39918 ft | 419 kts | 321° |
| 2026-04-30 20:02 | -27.54222 | 29.41099 | 39421 ft | 414 kts | 321° |
| 2026-04-30 20:02 | -27.51797 | 29.39331 | 39173 ft | 415 kts | 321° |
| 2026-04-30 20:03 | -27.46944 | 29.35796 | 38674 ft | 415 kts | 321° |
| 2026-04-30 20:03 | -27.44509 | 29.34025 | 38434 ft | 416 kts | 321° |
| 2026-04-30 20:03 | -27.42078 | 29.32259 | 38174 ft | 416 kts | 321° |
| 2026-04-30 20:03 | -27.39649 | 29.30495 | 37924 ft | 416 kts | 321° |
| 2026-04-30 20:04 | -27.37213 | 29.28727 | 37674 ft | 417 kts | 321° |
| 2026-04-30 20:04 | -27.34807 | 29.26984 | 37428 ft | 417 kts | 321° |
| 2026-04-30 20:04 | -27.32367 | 29.25214 | 37179 ft | 418 kts | 322° |
| 2026-04-30 20:05 | -27.27467 | 29.21660 | 36696 ft | 420 kts | 322° |
| 2026-04-30 20:05 | -27.25014 | 29.19883 | 36435 ft | 419 kts | 322° |
| 2026-04-30 20:05 | -27.20078 | 29.16330 | 35866 ft | 424 kts | 324° |
| 2026-04-30 20:06 | -27.17482 | 29.14722 | 35051 ft | 429 kts | 327° |
| 2026-04-30 20:06 | -27.14803 | 29.13157 | 33746 ft | 440 kts | 328° |
| 2026-04-30 20:06 | -27.12066 | 29.11559 | 32663 ft | 444 kts | 328° |
| 2026-04-30 20:06 | -27.09330 | 29.09958 | 31816 ft | 442 kts | 328° |
| 2026-04-30 20:07 | -27.06632 | 29.08380 | 31179 ft | 434 kts | 328° |
| 2026-04-30 20:07 | -27.03972 | 29.06821 | 30550 ft | 426 kts | 328° |
| 2026-04-30 20:07 | -26.98785 | 29.03778 | 29301 ft | 416 kts | 328° |
| 2026-04-30 20:08 | -26.96268 | 29.02299 | 28683 ft | 411 kts | 328° |
| 2026-04-30 20:08 | -26.93750 | 29.00824 | 28061 ft | 406 kts | 328° |
| 2026-04-30 20:08 | -26.91257 | 28.99364 | 27436 ft | 401 kts | 329° |
| 2026-04-30 20:08 | -26.88796 | 28.97925 | 26812 ft | 396 kts | 329° |
| 2026-04-30 20:09 | -26.86368 | 28.96503 | 26199 ft | 393 kts | 329° |
| 2026-04-30 20:09 | -26.83959 | 28.95094 | 25574 ft | 389 kts | 329° |
| 2026-04-30 20:09 | -26.79198 | 28.92311 | 24305 ft | 382 kts | 329° |
| 2026-04-30 20:10 | -26.74540 | 28.89591 | 23076 ft | 375 kts | 329° |
| 2026-04-30 20:10 | -26.72262 | 28.88190 | 22442 ft | 371 kts | 323° |
| 2026-04-30 20:10 | -26.70322 | 28.86333 | 21825 ft | 366 kts | 311° |
| 2026-04-30 20:11 | -26.67896 | 28.81493 | 20777 ft | 352 kts | 291° |
| 2026-04-30 20:11 | -26.67058 | 28.78939 | 20280 ft | 346 kts | 292° |
| 2026-04-30 20:11 | -26.66212 | 28.76441 | 19783 ft | 341 kts | 292° |
| 2026-04-30 20:12 | -26.64546 | 28.71550 | 18895 ft | 329 kts | 292° |
| 2026-04-30 20:12 | -26.63740 | 28.69175 | 18474 ft | 325 kts | 292° |
| 2026-04-30 20:12 | -26.62945 | 28.66832 | 18048 ft | 320 kts | 292° |
| 2026-04-30 20:13 | -26.62162 | 28.64526 | 17621 ft | 315 kts | 292° |
| 2026-04-30 20:13 | -26.61391 | 28.62255 | 17194 ft | 311 kts | 292° |
| 2026-04-30 20:13 | -26.60628 | 28.60009 | 16801 ft | 307 kts | 292° |
| 2026-04-30 20:13 | -26.59877 | 28.57796 | 16424 ft | 302 kts | 292° |
| 2026-04-30 20:14 | -26.59135 | 28.55612 | 16048 ft | 299 kts | 292° |
| 2026-04-30 20:14 | -26.58412 | 28.53481 | 15685 ft | 295 kts | 292° |
| 2026-04-30 20:14 | -26.57687 | 28.51346 | 15336 ft | 291 kts | 292° |
| 2026-04-30 20:14 | -26.56973 | 28.49243 | 15021 ft | 286 kts | 292° |
| 2026-04-30 20:15 | -26.56273 | 28.47186 | 14726 ft | 280 kts | 292° |
| 2026-04-30 20:15 | -26.55588 | 28.45168 | 14423 ft | 276 kts | 292° |
| 2026-04-30 20:15 | -26.54917 | 28.43176 | 14119 ft | 272 kts | 292° |
| 2026-04-30 20:15 | -26.54249 | 28.41211 | 13860 ft | 269 kts | 292° |
| 2026-04-30 20:16 | -26.53583 | 28.39275 | 13606 ft | 263 kts | 292° |
| 2026-04-30 20:16 | -26.52974 | 28.37349 | 13343 ft | 263 kts | 284° |
| 2026-04-30 20:16 | -26.53002 | 28.35325 | 13072 ft | 264 kts | 259° |
| 2026-04-30 20:16 | -26.53837 | 28.33524 | 12842 ft | 274 kts | 234° |
| 2026-04-30 20:17 | -26.55361 | 28.32249 | 12603 ft | 275 kts | 207° |
| 2026-04-30 20:17 | -26.57220 | 28.31685 | 12356 ft | 279 kts | 198° |
| 2026-04-30 20:17 | -26.59122 | 28.31189 | 12088 ft | 279 kts | 199° |
| 2026-04-30 20:17 | -26.60965 | 28.30697 | 11845 ft | 272 kts | 199° |
| 2026-04-30 20:18 | -26.62842 | 28.30189 | 11601 ft | 277 kts | 198° |
| 2026-04-30 20:18 | -26.64693 | 28.29708 | 11362 ft | 270 kts | 198° |
| 2026-04-30 20:18 | -26.66533 | 28.29232 | 11119 ft | 277 kts | 198° |
| 2026-04-30 20:18 | -26.68369 | 28.28728 | 10827 ft | 268 kts | 205° |
| 2026-04-30 20:19 | -26.69855 | 28.27673 | 10567 ft | 251 kts | 234° |
| 2026-04-30 20:19 | -26.70474 | 28.26601 | 10403 ft | 240 kts | 255° |
| 2026-04-30 20:19 | -26.70530 | 28.24181 | 10098 ft | 231 kts | 294° |
| 2026-04-30 20:19 | -26.69874 | 28.22613 | 9835 ft | 219 kts | 298° |
| 2026-04-30 20:20 | -26.69071 | 28.21127 | 9587 ft | 226 kts | 308° |
| 2026-04-30 20:20 | -26.68109 | 28.19717 | 9328 ft | 229 kts | 309° |
| 2026-04-30 20:20 | -26.67154 | 28.18315 | 9077 ft | 229 kts | 309° |
| 2026-04-30 20:20 | -26.66127 | 28.16985 | 8802 ft | 225 kts | 323° |
| 2026-04-30 20:21 | -26.64833 | 28.16062 | 8565 ft | 215 kts | 328° |
| 2026-04-30 20:21 | -26.63523 | 28.15265 | 8313 ft | 214 kts | 337° |
| 2026-04-30 20:21 | -26.62139 | 28.14657 | 8196 ft | 210 kts | 339° |
| 2026-04-30 20:21 | -26.60783 | 28.14084 | 8223 ft | 210 kts | 343° |
| 2026-04-30 20:22 | -26.59337 | 28.13921 | 8222 ft | 209 kts | 1° |
| 2026-04-30 20:22 | -26.57858 | 28.14157 | 8223 ft | 217 kts | 9° |
| 2026-04-30 20:22 | -26.56396 | 28.14492 | 8201 ft | 215 kts | 9° |
| 2026-04-30 20:22 | -26.54902 | 28.14816 | 8197 ft | 218 kts | 8° |
| 2026-04-30 20:23 | -26.53438 | 28.15157 | 8208 ft | 215 kts | 9° |
| 2026-04-30 20:23 | -26.51968 | 28.15430 | 8193 ft | 212 kts | 5° |
| 2026-04-30 20:23 | -26.50470 | 28.15626 | 8226 ft | 216 kts | 4° |
| 2026-04-30 20:23 | -26.49479 | 28.15738 | 8227 ft | 215 kts | 4° |
| 2026-04-30 20:24 | -26.47994 | 28.15926 | 8202 ft | 216 kts | 4° |
| 2026-04-30 20:24 | -26.46537 | 28.16103 | 8218 ft | 211 kts | 1° |
| 2026-04-30 20:24 | -26.45026 | 28.16172 | 8231 ft | 229 kts | 2° |
| 2026-04-30 20:24 | -26.43480 | 28.16439 | 8222 ft | 220 kts | 10° |
| 2026-04-30 20:25 | -26.40538 | 28.17325 | 8233 ft | 215 kts | 11° |
| 2026-04-30 20:25 | -26.39105 | 28.17762 | 8218 ft | 216 kts | 13° |
| 2026-04-30 20:26 | -26.36223 | 28.18665 | 8227 ft | 217 kts | 12° |
| 2026-04-30 20:26 | -26.33364 | 28.19559 | 8248 ft | 204 kts | 13° |
| 2026-04-30 20:26 | -26.32004 | 28.19970 | 8230 ft | 198 kts | 12° |
| 2026-04-30 20:27 | -26.29551 | 28.20756 | 8139 ft | 174 kts | 12° |
| 2026-04-30 20:27 | -26.27161 | 28.21492 | 7683 ft | 180 kts | 13° |
| 2026-04-30 20:28 | -26.24838 | 28.22222 | 7203 ft | 156 kts | 13° |
| 2026-04-30 20:28 | -26.22834 | 28.22834 | 6812 ft | 143 kts | 13° |
| 2026-04-30 20:29 | -26.20944 | 28.23438 | 6449 ft | 141 kts | 14° |
| 2026-04-30 20:30 | -26.18119 | 28.24304 | 5883 ft | 140 kts | 14° |
| 2026-04-30 20:30 | -26.15470 | 28.25125 | 5521 ft | 98 kts | 15° |
| 2026-04-30 20:31 | -26.14301 | 28.25478 | 5515 ft | 23 kts | 5° |
| 2026-04-30 20:32 | -26.13908 | 28.25423 | 5515 ft | 18 kts | 355° |
| 2026-04-30 20:32 | -26.13652 | 28.25480 | 5509 ft | 21 kts | 15° |
| 2026-04-30 20:33 | -26.13531 | 28.25517 | 5508 ft | 14 kts | 15° |
| 2026-04-30 20:33 | -26.13365 | 28.25504 | 5519 ft | 13 kts | 348° |
| 2026-04-30 20:33 | -26.13279 | 28.25484 | 5524 ft | 13 kts | 348° |
| 2026-04-30 20:34 | -26.13103 | 28.25436 | 5531 ft | 14 kts | 338° |
| 2026-04-30 20:34 | -26.12927 | 28.25290 | 5531 ft | 17 kts | 307° |
| 2026-04-30 20:35 | -26.12874 | 28.25187 | 5531 ft | 15 kts | 292° |
| 2026-04-30 20:35 | -26.12841 | 28.25069 | 5531 ft | 17 kts | 285° |
| 2026-04-30 20:35 | -26.12778 | 28.24822 | 5531 ft | 17 kts | 285° |
| 2026-04-30 20:36 | -26.12744 | 28.24688 | 5531 ft | 18 kts | 286° |
| 2026-04-30 20:36 | -26.12714 | 28.24566 | 5534 ft | 15 kts | 285° |
| 2026-04-30 20:36 | -26.12666 | 28.24378 | 5544 ft | 11 kts | 285° |
| 2026-04-30 20:37 | -26.12645 | 28.24293 | 5547 ft | 12 kts | 286° |
| 2026-04-30 20:37 | -26.12620 | 28.24195 | 5548 ft | 14 kts | 286° |
| 2026-04-30 20:37 | -26.12593 | 28.24091 | 5549 ft | 14 kts | 286° |
| 2026-04-30 20:37 | -26.12568 | 28.23994 | 5550 ft | 10 kts | 286° |
| 2026-04-30 20:38 | -26.12550 | 28.23920 | 5548 ft | 8 kts | 275° |
| 2026-04-30 20:38 | -26.12578 | 28.23873 | 5547 ft | 10 kts | 201° |
| 2026-04-30 20:38 | -26.12655 | 28.23848 | 5550 ft | 13 kts | 195° |
| 2026-04-30 20:39 | -26.12807 | 28.23801 | 5551 ft | 10 kts | 201° |
| 2026-04-30 20:39 | -26.12831 | 28.23761 | 5552 ft | 7 kts | 271° |
| 2026-04-30 20:39 | -26.12827 | 28.23693 | 5554 ft | 10 kts | 276° |
| 2026-04-30 20:40 | -26.12832 | 28.23589 | 5553 ft | 5 kts | 208° |
| 2026-04-30 20:40 | -26.12859 | 28.23583 | 5552 ft | 4 kts | 187° |
| 2026-04-30 20:40 | -26.12873 | 28.23581 | 5553 ft | 0 kts | 186° |
| 2026-04-30 20:41 | -26.12876 | 28.23581 | 5556 ft | 3 kts | 186° |
| 2026-04-30 20:41 | -26.12894 | 28.23579 | 5552 ft | 3 kts | 186° |
| 2026-04-30 20:41 | -26.12912 | 28.23577 | 5552 ft | 2 kts | 186° |
| 2026-04-30 20:41 | -26.12916 | 28.23576 | 5552 ft | 0 kts | 186° |